NCAR-RAP Real-Time Weather Data

Output produced by METARs form (17 December 2018  13:55 UTC)
found at http://weather.rap.ucar.edu/surface/
 
RJOK 171100Z 36003KT 9999 FEW030 SCT060 09/M01 Q1014
RJOK 171000Z 03003KT 360V060 9999 FEW030 SCT070 10/M01 Q1014
RJOK 170900Z 35003KT 290V040 9999 FEW030 SCT070 10/M02 Q1013
RJOK 170800Z 27012KT 9999 FEW030 SCT040 11/M02 Q1012
RJOK 170700Z 29014KT 9999 FEW030 13/M02 Q1011
RJOK 170600Z 29016KT 9999 FEW030 SCT045 14/M01 Q1010
RJOK 170500Z 28013KT 9999 FEW030 SCT045 BKN060 15/03 Q1010
RJOK 170400Z 36011KT 9999 FEW030 SCT045 15/02 Q1010
RJOK 170300Z 25005KT 200V310 9999 FEW030 SCT040 BKN060 15/02 Q1010
RJOK 170200Z VRB03KT 9999 FEW030 SCT040 15/01 Q1011
RJOK 170100Z 33011KT 9999 FEW030 14/01 Q1012
RJOK 170000Z 33013KT 9999 FEW030 13/04 Q1012
RJOK 162300Z 32006KT 9999 FEW025 SCT035 09/06 Q1011
RJOK 162200Z 35010KT 9999 FEW025 11/05 Q1010
RJOK 162110Z 35014KT 9999 FEW010 11/05 Q1010 RMK 1ST010 A2984
RJOK 161100Z 34005KT 9999 -SHRA FEW005 SCT025 BKN040 10/08 Q1016
RJOK 161000Z 34005KT 9000 -SHRA FEW005 BKN040 BKN050 10/08 Q1017
RJOK 160900Z 34005KT 9999 -SHRA FEW005 BKN045 BKN060 10/08 Q1018
RJOK 160800Z 36006KT 9999 -SHRA FEW005 SCT040 BKN050 10/08 Q1018
RJOK 160700Z 34006KT 9999 -SHRA FEW010 SCT040 BKN050 10/08 Q1019
RJOK 160600Z 33007KT 9999 -SHRA FEW010 SCT040 BKN050 11/07 Q1019
RJOK 160500Z 29003KT 250V350 9999 -SHRA FEW020 SCT030 BKN040 13/04 Q1020
RJOK 160400Z 32004KT 290V360 9999 FEW025 SCT045 BKN050 13/04 Q1020
RJOK 160300Z 33005KT 9999 FEW025 BKN050 BKN080 13/04 Q1022
RJOK 160200Z 34004KT 9999 FEW025 SCT050 BKN130 11/04 Q1023
RJOK 160100Z 33007KT 9999 FEW025 SCT045 BKN120 09/03 Q1025
RJOK 160000Z 33006KT 9999 FEW025 SCT045 BKN/// 07/02 Q1025
RJOK 151100Z 36008KT 9999 FEW050 07/M01 Q1028
RJOK 151000Z 36008KT 9999 FEW050 08/M02 Q1028
RJOK 150900Z 36007KT 9999 FEW050 08/M02 Q1028
RJOK 150800Z 35010KT 9999 FEW050 10/M02 Q1027
RJOK 150700Z 35008KT 9999 FEW035 12/M03 Q1027
RJOK 150600Z 35010KT 9999 FEW035 13/M04 Q1027
RJOK 150500Z 01012KT 350V050 9999 FEW035 13/M04 Q1027
RJOK 150400Z 02013KT 9999 FEW035 12/M03 Q1027
RJOK 150300Z 03011KT 9999 FEW030 SCT040 12/M03 Q1028
RJOK 150200Z 35013KT 320V030 9999 FEW030 SCT040 12/M02 Q1029